Time;durP1;ratioP1;P1;durP2;ratioP2;P2;SDS_P1;SDS_P2;PMS_P1;PMS_P2;Temp;Humidity;BMP_temperature;BMP_pressure;BME280_temperature;BME280_humidity;BME280_pressure;Samples;Min_cycle;Max_cycle;Signal;HPM_P1;HPM_P2
2024/03/17 00:02:01;;;;;;;17.42;12.73;;;21.80;48.20;;;;;;10389524;28;20049;-57
2024/03/17 00:07:03;;;;;;;18.67;13.70;;;21.80;48.10;;;;;;10394518;28;20048;-56
2024/03/17 00:12:07;;;;;;;18.13;13.63;;;21.90;47.90;;;;;;10400587;28;20073;-58
2024/03/17 00:17:08;;;;;;;17.15;12.70;;;21.70;48.10;;;;;;10402377;28;20049;-55
2024/03/17 00:22:13;;;;;;;17.35;12.30;;;21.60;48.40;;;;;;10396864;28;20056;-57
2024/03/17 00:27:16;;;;;;;17.85;12.02;;;21.30;49.00;;;;;;10401830;28;20049;-56
2024/03/17 00:32:18;;;;;;;16.20;12.68;;;21.50;48.70;;;;;;10398156;28;20056;-58
2024/03/17 00:37:19;;;;;;;15.32;11.27;;;21.20;49.20;;;;;;10397204;28;20128;-59
2024/03/17 00:42:22;;;;;;;16.00;12.15;;;21.30;49.00;;;;;;10395959;28;20048;-57
2024/03/17 00:47:24;;;;;;;16.73;11.88;;;21.20;49.20;;;;;;10398387;28;20046;-60
2024/03/17 00:52:26;;;;;;;16.15;11.80;;;21.20;49.10;;;;;;10400133;28;20041;-57
2024/03/17 00:57:29;;;;;;;16.63;11.57;;;21.10;49.00;;;;;;10402858;28;20042;-56
2024/03/17 01:02:30;;;;;;;15.18;10.85;;;21.00;49.50;;;;;;10396665;28;20049;-54
2024/03/17 01:07:32;;;;;;;13.88;10.93;;;20.90;49.60;;;;;;10392360;28;20038;-54
2024/03/17 01:12:35;;;;;;;13.93;10.82;;;20.80;49.70;;;;;;10394690;28;20052;-57
2024/03/17 01:17:37;;;;;;;14.75;10.80;;;20.80;50.10;;;;;;10388042;28;20049;-58
2024/03/17 01:22:38;;;;;;;14.13;10.18;;;20.70;49.70;;;;;;10403042;28;20496;-59
2024/03/17 01:27:43;;;;;;;14.20;10.82;;;20.70;49.90;;;;;;10408447;28;20423;-58
2024/03/17 01:32:44;;;;;;;11.95;10.02;;;20.70;49.60;;;;;;10406774;28;20045;-56
2024/03/17 01:37:46;;;;;;;13.63;10.30;;;20.70;49.70;;;;;;10405829;28;20042;-54
2024/03/17 01:42:49;;;;;;;13.02;10.68;;;20.50;50.00;;;;;;10405365;28;20470;-58
2024/03/17 01:47:50;;;;;;;17.73;10.98;;;20.50;50.00;;;;;;10406823;28;20049;-57
2024/03/17 01:52:54;;;;;;;14.50;10.40;;;20.50;50.00;;;;;;10405049;28;20053;-53
2024/03/17 01:57:57;;;;;;;14.65;10.13;;;20.50;49.90;;;;;;10400535;28;20494;-55
2024/03/17 02:02:59;;;;;;;12.65;9.88;;;20.50;49.80;;;;;;10407574;28;20467;-57
2024/03/17 02:13:59;;;;;;;12.82;9.60;;;20.50;49.80;;;;;;10399130;28;20069;-53
2024/03/17 02:19:01;;;;;;;12.75;9.55;;;20.10;50.60;;;;;;10403292;28;20056;-58
2024/03/17 02:24:04;;;;;;;11.95;9.27;;;20.20;50.40;;;;;;10400876;28;20068;-56
2024/03/17 02:29:06;;;;;;;13.45;9.80;;;20.20;50.50;;;;;;10402465;28;20137;-57
2024/03/17 02:34:07;;;;;;;12.38;9.00;;;20.10;50.60;;;;;;10399919;28;20080;-55
2024/03/17 02:44:30;;;;;;;11.23;9.13;;;20.10;50.30;;;;;;10399114;28;20049;-53
2024/03/17 02:49:36;;;;;;;11.95;9.30;;;20.10;50.50;;;;;;10400427;28;20073;-53
2024/03/17 02:54:39;;;;;;;11.82;8.88;;;20.10;50.30;;;;;;10404634;28;20128;-54
2024/03/17 02:59:41;;;;;;;9.23;8.13;;;20.10;50.40;;;;;;10406573;28;20133;-57
2024/03/17 03:04:43;;;;;;;10.95;8.55;;;19.90;51.30;;;;;;10402904;28;20046;-55
2024/03/17 03:09:45;;;;;;;11.02;8.85;;;19.90;51.00;;;;;;10396216;28;20048;-56
2024/03/17 03:14:47;;;;;;;11.50;8.20;;;19.90;50.80;;;;;;10399474;28;20045;-57
2024/03/17 03:19:49;;;;;;;10.88;8.45;;;19.80;50.80;;;;;;10404567;28;20121;-56
2024/03/17 03:24:54;;;;;;;10.35;8.45;;;19.80;51.40;;;;;;10403494;28;20041;-56
2024/03/17 03:29:56;;;;;;;10.95;8.23;;;19.90;50.60;;;;;;10402204;28;20124;-56
2024/03/17 03:34:57;;;;;;;9.98;8.10;;;19.80;50.80;;;;;;10399417;28;20419;-57
2024/03/17 03:40:00;;;;;;;10.98;8.43;;;19.80;50.60;;;;;;10392109;28;20049;-54
2024/03/17 03:45:02;;;;;;;10.20;7.38;;;19.80;50.60;;;;;;10394438;28;20136;-56
2024/03/17 03:50:04;;;;;;;9.05;7.10;;;19.70;50.80;;;;;;10394739;28;20595;-54
2024/03/17 03:55:10;;;;;;;9.77;7.43;;;19.60;50.90;;;;;;10396572;28;20700;-54
2024/03/17 04:00:13;;;;;;;9.13;7.30;;;19.60;51.00;;;;;;10397250;28;20045;-54
2024/03/17 04:05:14;;;;;;;8.88;7.15;;;19.30;51.40;;;;;;10398657;28;20504;-57
2024/03/17 04:10:18;;;;;;;9.68;7.25;;;20.50;49.40;;;;;;10402605;28;20041;-54
2024/03/17 04:15:20;;;;;;;9.65;7.78;;;21.00;49.10;;;;;;10398340;28;20049;-57
2024/03/17 04:20:22;;;;;;;9.65;7.53;;;21.30;48.30;;;;;;10395860;28;20076;-57
2024/03/17 04:25:25;;;;;;;9.05;7.70;;;21.60;47.60;;;;;;10394153;28;20050;-58
2024/03/17 04:30:26;;;;;;;8.90;7.25;;;21.70;47.40;;;;;;10397088;28;20077;-58
2024/03/17 04:35:28;;;;;;;9.32;7.43;;;21.90;47.00;;;;;;10401381;28;20045;-59
2024/03/17 04:40:31;;;;;;;8.15;7.13;;;22.00;46.70;;;;;;10404632;28;20136;-55
2024/03/17 04:45:33;;;;;;;8.85;6.75;;;22.10;46.40;;;;;;10402681;28;20052;-54
2024/03/17 04:50:34;;;;;;;8.50;7.20;;;22.20;46.20;;;;;;10398623;28;20129;-57
2024/03/17 04:55:38;;;;;;;8.15;6.57;;;22.20;46.00;;;;;;10395223;28;20059;-58
2024/03/17 05:00:39;;;;;;;7.13;5.95;;;22.20;45.90;;;;;;10398325;28;20558;-55
2024/03/17 05:05:41;;;;;;;7.72;6.55;;;22.30;45.90;;;;;;10393845;28;20046;-57
2024/03/17 05:10:44;;;;;;;7.32;6.38;;;22.20;45.90;;;;;;10398884;28;20056;-55
2024/03/17 05:15:46;;;;;;;7.50;5.93;;;22.30;46.00;;;;;;10392957;28;20432;-56
2024/03/17 05:20:48;;;;;;;6.43;5.40;;;22.30;46.00;;;;;;10398430;28;20091;-56
2024/03/17 05:25:53;;;;;;;6.75;5.50;;;22.40;46.00;;;;;;10400301;28;20060;-57
2024/03/17 05:30:56;;;;;;;6.95;5.53;;;22.40;46.00;;;;;;10400625;28;20046;-52
2024/03/17 05:35:59;;;;;;;6.45;5.72;;;22.50;45.80;;;;;;10395769;28;20100;-64
2024/03/17 05:41:02;;;;;;;6.00;5.40;;;22.60;45.70;;;;;;10395941;28;20077;-55
2024/03/17 05:46:06;;;;;;;11.15;5.43;;;22.70;46.00;;;;;;10397037;28;20476;-57
2024/03/17 05:51:07;;;;;;;9.85;5.45;;;22.70;47.10;;;;;;10395374;28;20065;-55
2024/03/17 05:56:12;;;;;;;7.57;6.13;;;22.80;47.30;;;;;;10398422;28;20056;-52
2024/03/17 06:01:14;;;;;;;13.02;8.38;;;22.80;47.70;;;;;;10395514;28;20092;-52
2024/03/17 06:06:15;;;;;;;13.95;8.90;;;22.80;48.20;;;;;;10394781;28;20496;-54
2024/03/17 06:11:18;;;;;;;23.80;9.73;;;22.50;49.40;;;;;;10396837;28;20128;-58
2024/03/17 06:16:20;;;;;;;20.92;10.80;;;22.40;49.50;;;;;;10404552;28;20167;-56
2024/03/17 06:21:22;;;;;;;18.92;11.00;;;22.50;50.10;;;;;;10399397;28;20491;-55
2024/03/17 06:26:26;;;;;;;16.30;10.70;;;22.60;49.30;;;;;;10398848;28;20132;-57
2024/03/17 06:31:28;;;;;;;20.73;13.13;;;22.50;48.40;;;;;;10401373;28;20048;-56
2024/03/17 06:36:29;;;;;;;28.40;14.93;;;22.60;49.00;;;;;;10403745;28;20514;-55
2024/03/17 06:41:32;;;;;;;23.88;15.40;;;22.60;49.70;;;;;;10404641;28;20041;-54
2024/03/17 06:46:34;;;;;;;18.00;10.95;;;22.70;49.00;;;;;;10395589;28;20064;-56
2024/03/17 06:51:35;;;;;;;19.45;13.23;;;22.60;46.80;;;;;;10398136;28;20050;-58
2024/03/17 06:56:38;;;;;;;22.40;11.15;;;22.60;47.20;;;;;;10401952;28;20137;-56
2024/03/17 07:01:42;;;;;;;17.38;11.48;;;22.70;47.00;;;;;;10397156;28;20136;-57
2024/03/17 07:06:44;;;;;;;20.70;10.50;;;22.70;46.90;;;;;;10398153;28;20069;-57
2024/03/17 07:11:47;;;;;;;20.05;10.00;;;22.70;47.00;;;;;;10401423;28;20042;-57
2024/03/17 07:16:48;;;;;;;16.48;7.97;;;22.70;47.00;;;;;;10396674;28;20132;-55
2024/03/17 07:21:50;;;;;;;11.73;7.05;;;22.70;46.40;;;;;;10396653;28;20037;-57
2024/03/17 07:26:53;;;;;;;11.23;7.22;;;22.70;46.00;;;;;;10401450;28;20057;-56
2024/03/17 07:31:54;;;;;;;14.77;6.38;;;22.80;45.70;;;;;;10400899;28;20050;-57
2024/03/17 07:36:56;;;;;;;12.77;6.22;;;22.90;45.70;;;;;;10403833;28;20136;-55
2024/03/17 07:41:59;;;;;;;11.30;7.57;;;23.00;45.30;;;;;;10404442;28;20059;-58
2024/03/17 07:47:01;;;;;;;15.88;8.95;;;22.90;45.50;;;;;;10400753;28;20058;-58
2024/03/17 07:52:03;;;;;;;16.23;8.93;;;22.80;46.00;;;;;;10360549;28;20078;-54
2024/03/17 07:57:06;;;;;;;13.52;8.48;;;22.70;46.70;;;;;;10361470;28;20084;-57
2024/03/17 08:02:08;;;;;;;16.23;9.23;;;22.80;47.20;;;;;;10356116;28;20050;-60
2024/03/17 08:07:09;;;;;;;17.15;9.68;;;22.80;47.10;;;;;;10357989;28;20682;-54
2024/03/17 08:12:12;;;;;;;17.73;9.20;;;22.70;47.90;;;;;;10356948;28;20403;-55
2024/03/17 08:17:14;;;;;;;25.75;9.38;;;22.90;47.50;;;;;;10357364;28;20137;-53
2024/03/17 08:22:15;;;;;;;15.05;9.43;;;22.80;47.30;;;;;;10349725;28;20049;-54
2024/03/17 08:27:18;;;;;;;15.38;10.27;;;22.80;47.40;;;;;;10371219;28;20049;-54
2024/03/17 08:32:20;;;;;;;20.25;10.80;;;22.80;48.10;;;;;;10395518;28;20141;-55
2024/03/17 08:37:25;;;;;;;20.25;12.00;;;22.80;47.50;;;;;;10394925;28;20213;-54
2024/03/17 08:42:28;;;;;;;20.23;12.05;;;22.80;47.40;;;;;;10362709;28;20136;-54
2024/03/17 08:47:30;;;;;;;16.77;11.35;;;22.90;47.20;;;;;;10389459;28;20048;-52
2024/03/17 08:52:32;;;;;;;20.45;12.05;;;23.00;46.70;;;;;;10399378;28;20056;-53
2024/03/17 08:57:35;;;;;;;18.63;10.95;;;22.90;47.20;;;;;;10391266;28;20638;-53
2024/03/17 09:02:36;;;;;;;20.98;11.35;;;23.10;47.30;;;;;;10401014;28;20119;-53
2024/03/17 09:07:38;;;;;;;24.83;13.35;;;23.10;48.10;;;;;;10389720;28;20085;-56
2024/03/17 09:12:41;;;;;;;29.50;15.23;;;23.00;48.40;;;;;;10398317;28;20480;-52
2024/03/17 09:17:44;;;;;;;43.25;17.17;;;22.90;49.60;;;;;;10402004;28;20052;-59
2024/03/17 09:22:45;;;;;;;59.13;18.50;;;23.00;49.80;;;;;;10398459;28;20042;-56
2024/03/17 09:27:48;;;;;;;43.85;17.77;;;23.10;50.20;;;;;;10439946;22;20136;-58
2024/03/17 09:32:50;;;;;;;43.63;16.77;;;23.00;50.40;;;;;;10360216;28;20050;-60
2024/03/17 09:37:52;;;;;;;35.90;14.50;;;23.10;52.30;;;;;;10350591;28;20049;-61
2024/03/17 09:42:54;;;;;;;44.10;14.60;;;23.40;51.70;;;;;;10356190;28;20508;-56
2024/03/17 09:47:56;;;;;;;26.67;13.07;;;23.50;52.10;;;;;;10405990;28;20485;-58
2024/03/17 09:52:58;;;;;;;27.90;10.48;;;23.00;53.40;;;;;;10407677;28;20069;-56
2024/03/17 09:58:01;;;;;;;23.08;10.15;;;23.00;50.20;;;;;;10405089;28;20133;-56
2024/03/17 10:03:02;;;;;;;20.40;9.25;;;23.20;49.20;;;;;;10403217;28;20149;-60
2024/03/17 10:08:04;;;;;;;17.80;8.35;;;23.20;48.60;;;;;;10409620;28;20132;-61
2024/03/17 10:13:07;;;;;;;17.70;8.75;;;23.20;47.50;;;;;;10401275;28;20042;-61
2024/03/17 10:18:21;;;;;;;15.70;8.18;;;23.10;47.60;;;;;;10410114;28;20675;-60
2024/03/17 10:23:22;;;;;;;13.77;7.53;;;23.20;47.30;;;;;;10402539;28;20412;-61
2024/03/17 10:28:25;;;;;;;13.65;6.65;;;22.90;47.70;;;;;;10406116;28;20045;-60
2024/03/17 10:33:27;;;;;;;14.07;5.53;;;22.80;45.90;;;;;;10405369;28;20128;-61
2024/03/17 10:38:29;;;;;;;13.77;5.70;;;22.70;45.00;;;;;;10405125;28;20045;-59
2024/03/17 10:43:34;;;;;;;15.48;8.10;;;22.70;43.90;;;;;;10400750;28;20129;-60
2024/03/17 10:48:36;;;;;;;11.05;6.10;;;22.80;43.20;;;;;;10400439;28;20073;-60
2024/03/17 10:53:38;;;;;;;10.20;5.25;;;22.80;41.50;;;;;;10396717;28;20133;-60
2024/03/17 10:58:46;;;;;;;11.43;4.72;;;22.90;41.00;;;;;;10405375;28;20100;-60
2024/03/17 11:03:50;;;;;;;8.30;4.38;;;23.00;40.40;;;;;;10402288;28;20057;-60
2024/03/17 11:08:51;;;;;;;39.30;5.13;;;23.00;39.50;;;;;;10406183;28;20519;-59
2024/03/17 11:13:56;;;;;;;29.48;4.43;;;23.00;38.10;;;;;;10406822;28;20136;-60
2024/03/17 11:19:05;;;;;;;16.52;3.50;;;22.90;38.10;;;;;;10408115;28;20135;-56
2024/03/17 11:24:08;;;;;;;14.25;2.78;;;23.00;38.30;;;;;;10406973;28;20124;-60
2024/03/17 11:29:27;;;;;;;16.23;3.13;;;23.10;38.50;;;;;;10402283;28;20123;-62
2024/03/17 11:34:39;;;;;;;13.02;3.22;;;23.20;39.40;;;;;;10393046;28;20048;-61
2024/03/17 11:39:49;;;;;;;18.80;3.05;;;23.10;39.40;;;;;;10399772;28;20049;-60
2024/03/17 11:45:03;;;;;;;11.55;2.63;;;23.20;39.50;;;;;;10399081;28;20049;-61
2024/03/17 11:50:06;;;;;;;8.55;2.72;;;23.40;38.70;;;;;;10397178;28;21819;-59
2024/03/17 11:55:17;;;;;;;10.32;3.15;;;23.30;38.20;;;;;;10395878;28;20459;-59
2024/03/17 12:00:23;;;;;;;8.80;3.20;;;23.30;38.90;;;;;;10400157;28;20046;-58
2024/03/17 12:05:25;;;;;;;10.07;3.53;;;23.20;39.90;;;;;;10398448;28;20103;-59
2024/03/17 12:10:27;;;;;;;8.43;4.28;;;23.20;40.90;;;;;;10379148;28;20145;-61
2024/03/17 12:15:31;;;;;;;9.88;6.10;;;23.10;41.40;;;;;;10313762;28;20665;-61
2024/03/17 12:20:33;;;;;;;10.52;7.32;;;22.90;42.40;;;;;;10313619;28;20070;-61
2024/03/17 12:25:34;;;;;;;9.57;7.47;;;22.90;42.80;;;;;;10335735;28;20045;-62
2024/03/17 12:30:37;;;;;;;13.27;7.18;;;22.60;44.20;;;;;;10360922;28;20141;-62
2024/03/17 12:35:40;;;;;;;9.00;6.47;;;22.50;45.00;;;;;;10361485;28;20061;-61
2024/03/17 12:40:41;;;;;;;14.52;7.03;;;22.50;46.00;;;;;;10361706;28;20132;-60
2024/03/17 12:45:46;;;;;;;12.77;3.05;;;22.50;46.40;;;;;;10357430;28;20506;-57
2024/03/17 12:50:48;;;;;;;10.15;2.42;;;22.60;35.50;;;;;;10363051;28;20092;-56
2024/03/17 13:01:16;;;;;;;5.10;1.65;;;22.40;32.50;;;;;;10349975;28;20419;-59
2024/03/17 13:06:24;;;;;;;6.90;1.70;;;22.10;28.80;;;;;;10353036;28;20048;-57
2024/03/17 13:11:28;;;;;;;7.32;1.92;;;21.20;28.80;;;;;;10364562;28;20046;-57
2024/03/17 13:16:31;;;;;;;7.05;1.67;;;21.40;28.50;;;;;;10359542;28;20136;-55
2024/03/17 13:21:33;;;;;;;6.28;1.60;;;21.30;28.80;;;;;;10367218;28;20153;-59
2024/03/17 13:26:35;;;;;;;12.68;1.95;;;21.20;28.90;;;;;;10367078;28;20050;-60
2024/03/17 13:31:38;;;;;;;11.18;1.70;;;21.30;29.40;;;;;;10367121;28;20449;-60
2024/03/17 13:36:39;;;;;;;10.18;1.80;;;21.20;29.40;;;;;;10360210;28;20140;-59
2024/03/17 13:41:41;;;;;;;11.50;2.15;;;21.10;29.00;;;;;;10367248;28;20137;-63
2024/03/17 13:46:44;;;;;;;10.25;1.83;;;21.80;30.00;;;;;;10368458;28;20042;-56
2024/03/17 13:51:45;;;;;;;12.85;2.03;;;22.10;33.60;;;;;;10373220;28;20141;-58
2024/03/17 13:56:47;;;;;;;15.73;1.67;;;22.30;35.50;;;;;;10367354;28;20080;-57
2024/03/17 14:01:50;;;;;;;5.95;1.65;;;22.50;37.10;;;;;;10343418;28;20133;-60
2024/03/17 14:06:52;;;;;;;7.35;1.90;;;22.70;39.10;;;;;;10363075;28;20046;-56
2024/03/17 14:11:54;;;;;;;8.93;1.70;;;22.80;40.00;;;;;;10358766;28;20185;-57
2024/03/17 14:16:57;;;;;;;6.22;1.90;;;22.90;37.50;;;;;;10361386;28;20053;-56
2024/03/17 14:21:59;;;;;;;7.00;1.63;;;22.90;39.10;;;;;;10365768;28;20262;-56
2024/03/17 14:27:00;;;;;;;5.88;1.52;;;22.90;40.80;;;;;;10363740;28;20042;-60
2024/03/17 14:32:03;;;;;;;4.07;1.40;;;23.00;41.40;;;;;;10361174;28;20135;-58
2024/03/17 14:37:05;;;;;;;3.53;1.55;;;23.10;41.70;;;;;;10362213;28;20132;-57
2024/03/17 14:42:07;;;;;;;8.23;1.80;;;23.20;42.00;;;;;;10366116;28;20136;-58
2024/03/17 14:47:10;;;;;;;8.23;2.17;;;22.90;43.10;;;;;;10370488;28;20053;-57
2024/03/17 14:52:12;;;;;;;6.35;1.30;;;22.90;43.00;;;;;;10367750;28;20084;-57
2024/03/17 14:57:15;;;;;;;15.43;1.70;;;22.90;43.50;;;;;;10368763;28;20096;-58
2024/03/17 15:02:18;;;;;;;6.22;1.48;;;22.80;44.00;;;;;;10369823;28;20733;-58
2024/03/17 15:07:20;;;;;;;9.70;2.13;;;22.90;43.50;;;;;;10361344;28;20090;-60
2024/03/17 15:12:21;;;;;;;14.85;1.95;;;23.30;43.50;;;;;;10361170;28;20520;-57
2024/03/17 15:17:25;;;;;;;7.78;1.83;;;23.20;43.80;;;;;;10359456;28;20038;-58
2024/03/17 15:22:26;;;;;;;9.05;2.00;;;22.80;45.60;;;;;;10355547;28;20444;-60
2024/03/17 15:27:29;;;;;;;7.85;1.75;;;22.90;46.00;;;;;;10327550;28;20131;-62
2024/03/17 15:32:31;;;;;;;8.45;1.80;;;23.10;45.80;;;;;;10357525;28;20050;-62
2024/03/17 15:37:33;;;;;;;15.15;1.90;;;23.50;44.90;;;;;;10362725;28;20154;-63
2024/03/17 15:42:35;;;;;;;12.43;1.70;;;23.30;35.70;;;;;;10360113;28;20121;-62
2024/03/17 15:47:38;;;;;;;3.88;1.60;;;23.40;37.00;;;;;;10355592;28;20046;-61
2024/03/17 15:52:42;;;;;;;4.18;1.50;;;23.60;40.30;;;;;;10353860;28;20521;-58
2024/03/17 15:57:43;;;;;;;3.78;1.30;;;23.90;40.50;;;;;;10321205;28;20686;-60
2024/03/17 16:02:47;;;;;;;5.78;1.55;;;24.00;41.00;;;;;;10318958;28;20094;-60
2024/03/17 16:07:48;;;;;;;5.60;1.40;;;24.20;41.50;;;;;;10302308;28;20081;-60
2024/03/17 16:12:51;;;;;;;10.68;1.63;;;24.10;42.00;;;;;;10319840;28;20137;-61
2024/03/17 16:17:54;;;;;;;9.05;1.48;;;24.20;42.30;;;;;;10317239;28;20050;-59
2024/03/17 16:22:58;;;;;;;6.63;1.75;;;24.00;41.20;;;;;;10319528;28;20480;-60
2024/03/17 16:28:00;;;;;;;9.38;2.05;;;24.10;42.50;;;;;;10312929;28;20528;-63
2024/03/17 16:33:04;;;;;;;9.40;2.30;;;24.10;42.90;;;;;;10317049;28;20046;-64
2024/03/17 16:38:05;;;;;;;32.72;15.23;;;23.90;44.00;;;;;;10320562;28;20046;-62
2024/03/17 16:43:07;;;;;;;61.00;33.00;;;24.00;44.30;;;;;;10318809;28;20050;-61
2024/03/17 16:48:10;;;;;;;61.30;34.83;;;24.20;44.70;;;;;;10315378;28;20456;-62
2024/03/17 16:53:12;;;;;;;67.05;33.13;;;24.40;44.40;;;;;;10319448;28;20133;-61
2024/03/17 16:58:14;;;;;;;56.03;29.92;;;24.40;44.60;;;;;;10314544;28;20528;-62
2024/03/17 17:03:17;;;;;;;43.90;23.70;;;24.50;44.50;;;;;;10357541;28;20096;-64
2024/03/17 17:08:18;;;;;;;23.27;13.55;;;24.60;44.10;;;;;;10355009;28;20144;-63
2024/03/17 17:13:20;;;;;;;27.90;12.98;;;24.20;44.40;;;;;;10357523;28;20434;-64
2024/03/17 17:18:51;;;;;;;17.45;10.00;;;24.30;44.40;;;;;;10355360;28;20140;-64
2024/03/17 17:23:52;;;;;;;20.45;10.48;;;24.30;44.20;;;;;;10324173;28;20045;-63
2024/03/17 17:28:56;;;;;;;19.58;10.10;;;24.30;44.00;;;;;;10359399;28;20060;-64
2024/03/17 17:34:00;;;;;;;22.48;9.85;;;24.30;44.60;;;;;;10361870;28;20129;-62
2024/03/17 17:39:01;;;;;;;17.90;10.00;;;24.20;44.90;;;;;;10356845;28;20134;-64
2024/03/17 17:44:03;;;;;;;17.90;8.90;;;24.20;45.40;;;;;;10355625;28;20494;-62
2024/03/17 17:49:06;;;;;;;12.73;8.38;;;24.40;45.50;;;;;;10357693;28;20042;-64
2024/03/17 17:54:08;;;;;;;20.40;7.22;;;24.20;46.40;;;;;;10353362;28;20137;-63
2024/03/17 17:59:10;;;;;;;9.63;5.55;;;24.00;43.70;;;;;;10354031;28;20058;-65
2024/03/17 18:04:13;;;;;;;8.88;4.55;;;24.30;42.00;;;;;;10360647;28;20057;-63
2024/03/17 18:09:28;;;;;;;;;;;;;;;;;;;;;
2024/03/17 18:14:32;;;;;;;6.70;3.90;;;24.40;42.40;;;;;;10322008;28;20050;-63
2024/03/17 18:19:37;;;;;;;9.45;3.45;;;24.00;43.00;;;;;;10320943;28;20573;-63
2024/03/17 18:24:38;;;;;;;8.57;4.75;;;23.80;43.40;;;;;;10308627;28;20133;-64
2024/03/17 18:29:40;;;;;;;16.48;4.20;;;23.70;43.70;;;;;;10325901;28;20053;-63
2024/03/17 18:34:43;;;;;;;11.93;5.80;;;23.80;43.80;;;;;;10322763;28;20050;-63
2024/03/17 18:39:45;;;;;;;10.10;5.68;;;23.60;44.10;;;;;;10323145;28;20128;-63
2024/03/17 18:44:47;;;;;;;9.88;5.70;;;23.40;44.50;;;;;;10317453;28;20034;-63
2024/03/17 18:49:52;;;;;;;13.00;5.63;;;23.40;44.60;;;;;;10324459;28;20046;-63
2024/03/17 18:54:54;;;;;;;10.52;5.65;;;23.30;44.80;;;;;;10322982;28;20046;-63
2024/03/17 18:59:56;;;;;;;10.20;6.20;;;23.30;44.90;;;;;;10323424;28;20591;-65
2024/03/17 19:04:59;;;;;;;9.00;5.97;;;23.20;45.00;;;;;;10322555;28;20150;-63
2024/03/17 19:10:01;;;;;;;9.90;5.57;;;23.50;44.70;;;;;;10317261;28;20062;-63
2024/03/17 19:15:03;;;;;;;9.45;5.82;;;23.70;44.50;;;;;;10309149;28;20126;-63
2024/03/17 19:20:09;;;;;;;8.02;5.35;;;23.90;44.50;;;;;;10308108;28;20066;-63
2024/03/17 19:25:11;;;;;;;8.00;5.43;;;23.80;44.60;;;;;;10309603;28;20047;-64
2024/03/17 19:30:14;;;;;;;8.98;5.35;;;23.90;44.80;;;;;;10311906;28;20077;-62
2024/03/17 19:35:18;;;;;;;10.35;5.75;;;23.90;45.00;;;;;;10318217;28;20043;-65
2024/03/17 19:40:19;;;;;;;25.42;13.82;;;23.80;44.90;;;;;;10318699;28;20093;-63
2024/03/17 19:45:21;;;;;;;21.98;11.85;;;23.60;44.90;;;;;;10321585;28;20050;-64
2024/03/17 19:50:28;;;;;;;24.60;13.82;;;23.80;45.00;;;;;;10315107;28;20489;-65
2024/03/17 19:55:29;;;;;;;31.27;16.90;;;24.00;45.40;;;;;;10314890;28;20084;-63
2024/03/17 20:00:31;;;;;;;27.80;17.60;;;23.80;45.50;;;;;;10313269;28;20520;-64
2024/03/17 20:05:38;;;;;;;30.90;21.75;;;24.00;45.50;;;;;;10320124;28;20121;-64
2024/03/17 20:10:40;;;;;;;37.05;22.60;;;24.00;45.70;;;;;;10318289;28;20157;-64
2024/03/17 20:15:44;;;;;;;38.97;23.65;;;24.00;45.70;;;;;;10316872;28;20054;-64
2024/03/17 20:20:47;;;;;;;37.80;25.27;;;24.10;45.50;;;;;;10316940;28;20046;-64
2024/03/17 20:25:49;;;;;;;43.45;25.35;;;24.20;45.20;;;;;;10312963;28;20412;-64
2024/03/17 20:30:50;;;;;;;41.65;25.20;;;24.20;45.50;;;;;;10316116;28;20058;-64
2024/03/17 20:35:53;;;;;;;42.25;25.83;;;24.00;45.60;;;;;;10308946;28;20039;-64
2024/03/17 20:40:55;;;;;;;39.53;25.95;;;23.80;45.90;;;;;;10315174;28;20049;-64
2024/03/17 20:45:56;;;;;;;41.63;26.33;;;23.60;46.00;;;;;;10314535;28;20161;-64
2024/03/17 20:51:00;;;;;;;40.35;25.45;;;23.50;46.10;;;;;;10316751;28;20129;-64
2024/03/17 20:56:02;;;;;;;41.03;25.75;;;23.40;46.30;;;;;;10318246;28;20078;-64
2024/03/17 21:01:05;;;;;;;40.20;25.52;;;23.40;45.90;;;;;;10317366;28;20042;-64
2024/03/17 21:06:13;;;;;;;38.22;24.80;;;23.30;46.00;;;;;;10318273;28;20043;-64
2024/03/17 21:11:15;;;;;;;35.63;24.25;;;23.30;45.70;;;;;;10313184;28;20050;-64
2024/03/17 21:16:17;;;;;;;37.70;22.92;;;23.30;45.70;;;;;;10317400;28;20082;-64
2024/03/17 21:21:21;;;;;;;35.85;23.20;;;23.20;45.80;;;;;;10316968;28;20057;-64
2024/03/17 21:26:22;;;;;;;32.42;21.40;;;23.20;45.50;;;;;;10317150;28;20133;-63
2024/03/17 21:31:24;;;;;;;32.78;21.98;;;23.30;45.10;;;;;;10313199;28;20093;-62
2024/03/17 21:36:27;;;;;;;30.27;21.13;;;23.20;45.10;;;;;;10314414;28;20045;-64
2024/03/17 21:41:30;;;;;;;27.80;19.20;;;23.40;44.50;;;;;;10320145;28;20046;-63
2024/03/17 21:46:31;;;;;;;31.40;19.67;;;23.50;44.20;;;;;;10324759;28;20034;-62
2024/03/17 21:51:35;;;;;;;30.05;19.75;;;23.60;43.80;;;;;;10314599;28;20047;-63
2024/03/17 21:56:37;;;;;;;28.92;18.50;;;23.60;43.50;;;;;;10313646;28;20042;-63
2024/03/17 22:01:38;;;;;;;25.33;17.23;;;23.70;43.20;;;;;;10320162;28;20053;-63
2024/03/17 22:06:41;;;;;;;23.90;16.65;;;23.80;43.00;;;;;;10316761;28;20419;-65
2024/03/17 22:11:43;;;;;;;25.33;16.55;;;23.70;43.00;;;;;;10321896;28;20046;-63
2024/03/17 22:16:45;;;;;;;22.38;15.65;;;23.70;43.10;;;;;;10321650;28;20474;-63
2024/03/17 22:21:49;;;;;;;24.83;15.98;;;23.40;43.10;;;;;;10322084;28;20564;-63
2024/03/17 22:26:51;;;;;;;22.23;15.10;;;23.30;43.50;;;;;;10319325;28;20054;-63
2024/03/17 22:31:53;;;;;;;21.98;14.75;;;23.40;43.50;;;;;;10320006;28;20078;-64
2024/03/17 22:36:55;;;;;;;26.40;14.30;;;23.30;43.50;;;;;;10311413;28;20046;-64
2024/03/17 22:41:57;;;;;;;20.40;13.85;;;23.40;43.10;;;;;;10318808;28;20046;-63
2024/03/17 22:47:00;;;;;;;20.42;13.57;;;23.40;43.10;;;;;;10317456;28;20042;-64
2024/03/17 22:52:04;;;;;;;19.65;13.40;;;23.50;42.90;;;;;;10321380;28;20093;-63
2024/03/17 22:57:06;;;;;;;19.73;12.55;;;23.40;43.10;;;;;;10318972;28;20042;-63
2024/03/17 23:02:08;;;;;;;21.25;12.57;;;23.20;43.40;;;;;;10320412;28;20038;-63
2024/03/17 23:07:11;;;;;;;19.92;13.00;;;23.30;42.90;;;;;;10321620;28;20042;-63
2024/03/17 23:12:12;;;;;;;16.88;11.57;;;23.30;42.90;;;;;;10319774;28;20046;-63
2024/03/17 23:17:14;;;;;;;17.30;11.73;;;23.20;43.00;;;;;;10321669;28;20378;-63
2024/03/17 23:22:17;;;;;;;18.50;11.20;;;23.20;42.90;;;;;;10319092;28;20042;-63
2024/03/17 23:27:18;;;;;;;16.48;11.18;;;23.10;43.10;;;;;;10315556;28;20034;-63
2024/03/17 23:32:20;;;;;;;14.98;10.52;;;23.00;43.30;;;;;;10321107;28;20159;-63
2024/03/17 23:37:23;;;;;;;16.25;11.50;;;22.90;43.30;;;;;;10321048;28;20039;-63
2024/03/17 23:42:24;;;;;;;14.98;10.30;;;22.90;43.30;;;;;;10321203;28;20122;-63
2024/03/17 23:47:26;;;;;;;15.00;9.88;;;22.80;43.50;;;;;;10315889;28;20049;-63
2024/03/17 23:52:29;;;;;;;15.77;10.52;;;22.60;43.80;;;;;;10311774;28;20049;-63
2024/03/17 23:57:31;;;;;;;14.63;9.65;;;22.50;43.90;;;;;;10321701;28;20048;-64
